EPRZ

Rzeszów-Jasionka Airport

Rzeszów, Poland
METAR EPRZ 150300Z 19003KT 4000 BR SCT003 18/18 Q1013
Observed Flight Rules
Aug-15 @ 03:00 UTC (37 minutes ago) Instrument Flight Rules
Wind Visibility Clouds Conditions
190° at 3 knots 4,007 meters
  • Scattered at 300' AGL
  • Mist
Temperatures Readings
Current 18°C / 64°F
Dewpoint 18°C / 64°F
Humidity 100%
Altimeter 29.91" Hg
Pressure 1013 hPa
Elevation 202
METAR EPRZ 150300Z 19003KT 4000 BR SCT003 18/18 Q1013
Observed Flight Rules
Aug-15 @ 03:00 UTC
(37 minutes ago)
IFR
Wind Visibility
190° at 3 knots 4,007 meters
Clouds
  • Scattered at 300' AGL
Conditions
  • Mist
Temperature Dewpoint
18°C / 64°F 18°C / 64°F
Humidity Altimeter Pressure
100% 29.91" Hg 1013 hPa